createdAt,value
2023-05-12T00:00:16.463Z,503.665300
2023-05-12T00:05:15.657Z,489.606104
2023-05-12T00:10:16.782Z,473.534527
2023-05-12T00:15:15.726Z,457.752139
2023-05-12T00:20:16.663Z,442.597723
2023-05-12T00:25:16.954Z,427.491544
2023-05-12T00:30:16.159Z,411.209422
2023-05-12T00:35:16.983Z,393.709596
2023-05-12T00:40:16.031Z,374.453826
2023-05-12T00:45:15.860Z,339.620821
2023-05-12T00:50:15.738Z,349.386933
2023-05-12T00:55:16.213Z,336.734400
2023-05-12T01:00:17.294Z,320.460763
2023-05-12T01:05:15.949Z,303.603173
2023-05-12T01:10:15.814Z,287.122607
2023-05-12T01:15:16.870Z,270.471066
2023-05-12T01:20:15.794Z,254.552231
2023-05-12T01:25:16.238Z,238.231520
2023-05-12T01:30:16.852Z,223.659072
2023-05-12T01:35:16.602Z,209.209624
2023-05-12T01:40:15.943Z,195.483685
2023-05-12T01:45:16.167Z,181.959427
2023-05-12T01:50:15.879Z,168.410508
2023-05-12T01:55:15.672Z,154.835546
2023-05-12T02:00:15.713Z,141.987725
2023-05-12T02:05:15.690Z,129.466222
2023-05-12T02:10:15.884Z,117.633380
2023-05-12T02:15:16.007Z,106.132219
2023-05-12T02:20:15.752Z,95.005100
2023-05-12T02:25:16.401Z,84.517863
2023-05-12T02:30:16.135Z,74.407470
2023-05-12T02:35:16.253Z,64.763409
2023-05-12T02:40:16.198Z,51.143060
2023-05-12T02:45:16.140Z,35.794126
2023-05-12T02:50:15.666Z,25.806667
2023-05-12T02:55:15.607Z,23.693885
2023-05-12T03:00:16.606Z,22.125795
2023-05-12T03:05:16.341Z,15.209881
2023-05-12T03:10:16.111Z,12.431560
2023-05-12T03:15:15.902Z,9.446033
2023-05-12T03:20:16.989Z,6.722751
2023-05-12T03:25:15.937Z,4.196743
2023-05-12T03:30:16.186Z,2.119565
2023-05-12T03:35:15.701Z,0.592715
2023-05-12T03:40:16.499Z,0.069118
2023-05-12T03:45:15.937Z,0.000000
2023-05-12T03:50:16.989Z,0.000000
2023-05-12T03:55:16.172Z,0.000000
2023-05-12T04:00:16.527Z,0.000000
2023-05-12T04:05:16.064Z,0.000000
2023-05-12T04:10:16.006Z,0.000000
2023-05-12T04:15:16.311Z,0.000000
2023-05-12T04:20:16.400Z,0.000000
2023-05-12T04:25:17.180Z,0.000000
2023-05-12T04:30:16.768Z,0.000000
2023-05-12T04:35:16.321Z,0.000000
2023-05-12T04:40:15.786Z,0.000000
2023-05-12T04:45:16.509Z,0.000000
2023-05-12T04:50:16.062Z,0.000000
2023-05-12T04:55:16.009Z,0.000000
2023-05-12T05:00:15.965Z,0.000000
2023-05-12T05:05:16.190Z,0.000000
2023-05-12T05:10:15.742Z,0.000000
2023-05-12T05:15:15.672Z,0.000000
2023-05-12T05:20:16.133Z,0.000000
2023-05-12T05:25:16.613Z,0.000000
2023-05-12T05:30:16.167Z,0.000000
2023-05-12T05:35:16.433Z,0.000000
2023-05-12T05:40:16.179Z,0.000000
2023-05-12T05:45:15.787Z,0.000000
2023-05-12T05:50:15.857Z,0.000000
2023-05-12T05:55:15.853Z,0.000000
2023-05-12T06:00:15.962Z,0.000000
2023-05-12T06:05:15.872Z,0.000000
2023-05-12T06:10:15.773Z,0.000000
2023-05-12T06:15:16.459Z,0.000000
2023-05-12T06:20:16.132Z,0.000000
2023-05-12T06:25:15.732Z,0.000000
2023-05-12T06:30:16.449Z,0.000000
2023-05-12T06:35:17.454Z,0.000000
2023-05-12T06:40:16.437Z,0.000000
2023-05-12T06:45:16.349Z,0.000000
2023-05-12T06:50:15.934Z,0.000000
2023-05-12T06:55:16.243Z,0.000000
2023-05-12T07:00:16.350Z,0.000000
2023-05-12T07:05:16.275Z,0.000000
2023-05-12T07:10:16.536Z,0.000000
2023-05-12T07:15:15.816Z,0.000000
2023-05-12T07:20:15.853Z,0.000000
2023-05-12T07:25:15.764Z,0.000000
2023-05-12T07:30:16.185Z,0.000000
2023-05-12T07:35:15.980Z,0.000000
2023-05-12T07:40:16.026Z,0.000000
2023-05-12T07:45:16.921Z,0.000000
2023-05-12T07:50:15.754Z,0.000000
2023-05-12T07:55:16.061Z,0.000000
2023-05-12T08:00:15.950Z,0.000000
2023-05-12T08:05:15.956Z,0.000000
2023-05-12T08:10:15.818Z,0.000000
2023-05-12T08:15:16.085Z,0.000000
2023-05-12T08:20:16.713Z,0.000000
2023-05-12T08:25:16.279Z,0.000000
2023-05-12T08:30:16.053Z,0.000000
2023-05-12T08:35:16.340Z,0.000000
2023-05-12T08:40:16.190Z,0.000000
2023-05-12T08:45:16.208Z,0.000000
2023-05-12T08:50:16.162Z,0.000000
2023-05-12T08:55:15.773Z,0.000000
2023-05-12T09:00:16.133Z,0.000000
2023-05-12T09:05:16.498Z,0.000000
2023-05-12T09:10:29.846Z,0.000000
2023-05-12T09:15:16.472Z,0.000000
2023-05-12T09:20:30.136Z,0.000000
2023-05-12T09:25:16.342Z,0.000000
2023-05-12T09:30:15.894Z,0.000000
2023-05-12T09:35:16.411Z,0.000000
2023-05-12T09:40:15.782Z,0.000000
2023-05-12T09:45:15.798Z,0.000000
2023-05-12T09:50:15.848Z,0.000000
2023-05-12T09:55:15.832Z,0.000000
2023-05-12T10:00:30.182Z,0.000000
2023-05-12T10:05:16.303Z,0.000000
2023-05-12T10:10:16.173Z,0.000000
2023-05-12T10:15:16.095Z,0.000000
2023-05-12T10:20:17.627Z,0.000000
2023-05-12T10:25:15.742Z,0.000000
2023-05-12T10:30:16.195Z,0.000000
2023-05-12T10:35:15.831Z,0.000000
2023-05-12T10:40:15.724Z,0.000000
2023-05-12T10:45:16.021Z,0.000000
2023-05-12T10:50:16.500Z,0.000000
2023-05-12T10:55:15.862Z,0.000000
2023-05-12T11:00:16.945Z,0.000000
2023-05-12T11:05:15.840Z,0.000000
2023-05-12T11:10:17.556Z,0.000000
2023-05-12T11:15:18.054Z,0.000000
2023-05-12T11:20:16.575Z,0.000000
2023-05-12T11:25:16.173Z,0.002297
2023-05-12T11:30:16.666Z,0.000000
2023-05-12T11:35:15.914Z,0.000000
2023-05-12T11:40:16.047Z,0.000000
2023-05-12T11:45:16.046Z,0.000000
2023-05-12T11:50:15.691Z,0.000000
2023-05-12T11:55:16.167Z,0.000000
2023-05-12T12:00:15.848Z,0.000000
2023-05-12T12:05:16.570Z,0.000000
2023-05-12T12:10:17.528Z,0.000000
2023-05-12T12:15:15.836Z,0.000000
2023-05-12T12:20:17.235Z,0.000000
2023-05-12T12:25:16.076Z,0.000000
2023-05-12T12:30:16.225Z,0.000000
2023-05-12T12:35:17.262Z,0.057632
2023-05-12T12:40:16.368Z,0.468720
2023-05-12T12:45:19.366Z,1.998536
2023-05-12T12:50:17.494Z,4.349829
2023-05-12T12:55:17.501Z,7.109798
2023-05-12T13:00:16.070Z,9.819166
2023-05-12T13:05:16.565Z,12.774800
2023-05-12T13:10:15.899Z,15.596952
2023-05-12T13:15:16.631Z,18.298585
2023-05-12T13:20:15.798Z,24.780968
2023-05-12T13:25:15.776Z,30.919674
2023-05-12T13:30:16.126Z,36.115465
2023-05-12T13:35:15.968Z,41.706953
2023-05-12T13:40:15.776Z,47.816243
2023-05-12T13:45:16.739Z,53.819289
2023-05-12T13:50:16.005Z,60.414437
2023-05-12T13:55:21.032Z,67.469741
2023-05-12T14:00:16.173Z,75.097859
2023-05-12T14:05:15.881Z,83.190115
2023-05-12T14:10:17.266Z,91.566428
2023-05-12T14:15:36.074Z,100.694919
2023-05-12T14:20:15.927Z,109.961052
2023-05-12T14:25:16.173Z,91.235576
2023-05-12T14:30:16.441Z,128.744661
2023-05-12T14:35:16.028Z,143.005128
2023-05-12T14:40:15.958Z,154.568208
2023-05-12T14:45:15.726Z,166.165648
2023-05-12T14:50:15.826Z,179.293785
2023-05-12T14:55:16.025Z,192.144926
2023-05-12T15:00:16.584Z,204.944703
2023-05-12T15:05:16.559Z,218.074675
2023-05-12T15:10:16.031Z,231.777136
2023-05-12T15:15:17.052Z,245.441043
2023-05-12T15:20:15.890Z,259.489421
2023-05-12T15:25:15.693Z,273.680322
2023-05-12T15:30:16.009Z,287.555769
2023-05-12T15:35:16.240Z,302.170420
2023-05-12T15:40:16.364Z,315.900297
2023-05-12T15:45:15.926Z,329.901768
2023-05-12T15:50:16.279Z,344.845379
2023-05-12T15:55:16.128Z,359.970123
2023-05-12T16:00:16.232Z,375.360675
2023-05-12T16:05:15.895Z,390.539920
2023-05-12T16:10:15.980Z,405.155451
2023-05-12T16:15:16.337Z,420.707701
2023-05-12T16:20:15.919Z,436.661339
2023-05-12T16:25:15.778Z,453.276663
2023-05-12T16:30:17.859Z,468.715914
2023-05-12T16:35:15.806Z,481.548535
2023-05-12T16:40:16.005Z,498.685032
2023-05-12T16:45:16.304Z,517.332806
2023-05-12T16:50:15.850Z,533.373810
2023-05-12T16:55:15.985Z,550.842563
2023-05-12T17:00:15.917Z,567.903532
2023-05-12T17:05:16.001Z,582.444846
2023-05-12T17:10:16.630Z,596.481370
2023-05-12T17:15:15.674Z,611.112037
2023-05-12T17:20:16.560Z,626.065991
2023-05-12T17:25:16.379Z,641.302240
2023-05-12T17:30:16.485Z,654.999478
2023-05-12T17:35:16.741Z,668.385453
2023-05-12T17:40:16.134Z,683.187524
2023-05-12T17:45:16.245Z,696.611061
2023-05-12T17:50:15.772Z,709.071423
2023-05-12T17:55:16.343Z,721.818765
2023-05-12T18:00:16.510Z,733.921565
2023-05-12T18:05:15.899Z,745.753114
2023-05-12T18:10:16.637Z,757.597137
2023-05-12T18:15:16.462Z,770.443665
2023-05-12T18:20:15.885Z,782.785705
2023-05-12T18:25:15.882Z,792.957913
2023-05-12T18:30:16.258Z,803.131195
2023-05-12T18:35:16.242Z,813.504628
2023-05-12T18:40:16.078Z,821.119500
2023-05-12T18:45:16.911Z,834.773958
2023-05-12T18:50:16.383Z,843.094339
2023-05-12T18:55:16.302Z,851.061737
2023-05-12T19:00:16.525Z,856.322534
2023-05-12T19:05:16.251Z,857.914992
2023-05-12T19:10:15.821Z,830.304014
2023-05-12T19:15:16.278Z,833.364614
2023-05-12T19:20:16.379Z,831.862926
2023-05-12T19:25:17.287Z,871.192231
2023-05-12T19:30:16.195Z,874.054084
2023-05-12T19:35:15.972Z,883.930067
2023-05-12T19:40:16.508Z,905.552045
2023-05-12T19:45:16.192Z,911.690711
2023-05-12T19:50:15.802Z,925.065898
2023-05-12T19:55:15.933Z,936.777863
2023-05-12T20:00:16.490Z,931.462471
2023-05-12T20:05:15.993Z,923.535202
2023-05-12T20:10:16.377Z,934.354731
2023-05-12T20:15:16.001Z,936.609664
2023-05-12T20:20:16.486Z,937.050471
2023-05-12T20:25:15.951Z,937.897728
2023-05-12T20:30:15.842Z,932.044694
2023-05-12T20:35:16.094Z,929.068328
2023-05-12T20:40:16.603Z,933.605152
2023-05-12T20:45:15.984Z,932.342312
2023-05-12T20:50:16.343Z,928.692566
2023-05-12T20:55:16.834Z,924.711903
2023-05-12T21:00:16.599Z,910.321405
2023-05-12T21:05:16.114Z,913.522966
2023-05-12T21:10:16.897Z,911.339242
2023-05-12T21:15:16.010Z,882.550152
2023-05-12T21:20:16.454Z,871.467473
2023-05-12T21:25:16.064Z,893.153644
2023-05-12T21:30:15.984Z,884.224186
2023-05-12T21:35:16.171Z,872.880521
2023-05-12T21:40:16.015Z,870.245566
2023-05-12T21:45:16.267Z,855.665932
2023-05-12T21:50:16.305Z,851.682997
2023-05-12T21:55:16.099Z,834.059465
2023-05-12T22:00:15.950Z,828.714164
2023-05-12T22:05:15.770Z,819.043429
2023-05-12T22:10:16.821Z,807.992625
2023-05-12T22:15:17.070Z,797.977390
2023-05-12T22:20:17.280Z,787.234197
2023-05-12T22:25:16.228Z,774.908311
2023-05-12T22:30:16.348Z,762.685526
2023-05-12T22:35:15.923Z,749.939941
2023-05-12T22:40:16.264Z,737.590569
2023-05-12T22:45:15.998Z,725.996295
2023-05-12T22:50:16.007Z,713.793511
2023-05-12T22:55:15.862Z,699.789569
2023-05-12T23:00:16.162Z,686.503158
2023-05-12T23:05:16.450Z,672.346761
2023-05-12T23:10:16.040Z,655.482399
2023-05-12T23:15:16.105Z,639.855720
2023-05-12T23:20:17.387Z,626.764518
2023-05-12T23:25:16.067Z,611.427546
2023-05-12T23:30:15.748Z,596.498193
2023-05-12T23:35:16.321Z,581.520043
2023-05-12T23:40:15.936Z,565.596620
2023-05-12T23:45:15.823Z,549.926814
2023-05-12T23:50:15.937Z,535.154640
2023-05-12T23:55:16.712Z,519.927928
